Sandy City
, Sandy
Last Weather Update:04/16/2012 11:00:00 AM
Date
ETo
ETc
Rain
Irrigation
Req
Temp
Max
Temp
Min
Temp
Avg
Avg RH
Avg Wind
Avg Solar
inches
inches
incehs
inches
F
F
F
%
%
watts/m2
03/01/2012 0.05" 0.00" 0.31" -0.25" 36.9° 25.6° 30.6° 82.2% 0.5 MPH 148.3w/m2
03/02/2012 0.04" 0.00" 0.19" -0.15" 32.6° 21.7° 26.7° 81.4% 0.4 MPH 153.5w/m2
03/03/2012 0.05" 0.00" 0.02" -0.02" 39.5° 25.7° 33.4° 63.4% 0.4 MPH 146.0w/m2
03/04/2012 0.10" 0.00" 0.00" 0.00" 54.2° 28.1° 40.5° 67.1% 0.2 MPH 239.1w/m2
03/05/2012 0.11" 0.00" 0.00" 0.00" 64.3° 29.0° 48.2° 49.2% 0.4 MPH 233.3w/m2
03/06/2012 0.05" 0.00" 0.00" 0.00" 58.6° 25.4° 46.4° 50.2% 1.0 MPH 87.8w/m2
03/07/2012 0.08" 0.00" 0.11" -0.09" 39.6° 24.8° 31.1° 75.4% 0.6 MPH 225.1w/m2
03/08/2012 0.09" 0.00" 0.00" 0.00" 47.6° 25.6° 34.8° 63.5% 0.2 MPH 251.4w/m2
03/09/2012 0.10" 0.00" 0.00" 0.00" 52.5° 24.6° 38.2° 61.0% 0.1 MPH 250.4w/m2
03/10/2012 0.11" 0.00" 0.00" 0.00" 58.1° 26.8° 42.4° 58.5% 0.1 MPH 254.0w/m2
03/11/2012 0.12" 0.00" 0.00" 0.00" 64.0° 33.6° 50.6° 39.8% 0.6 MPH 256.0w/m2
03/12/2012 0.13" 0.00" 0.00" 0.00" 65.8° 49.7° 57.3° 23.5% 1.0 MPH 256.0w/m2
03/13/2012 0.09" 0.00" 0.00" 0.00" 64.5° 55.2° 59.3° 18.9% 1.0 MPH 154.1w/m2
03/14/2012 0.09" 0.00" 0.00" 0.00" 63.0° 54.4° 57.9° 27.5% 0.7 MPH 147.9w/m2
03/15/2012 0.14" 0.00" 0.00" 0.00" 68.8° 42.6° 57.5° 39.4% 0.4 MPH 235.8w/m2
03/16/2012 0.11" 0.00" 0.00" 0.00" 66.2° 55.3° 61.7° 28.2% 0.9 MPH 174.7w/m2
03/17/2012 0.07" 0.00" 0.00" 0.00" 62.2° 48.7° 57.9° 38.8% 0.9 MPH 95.3w/m2
03/18/2012 0.04" 0.00" 0.25" -0.20" 51.8° 31.2° 39.9° 77.6% 0.8 MPH 90.5w/m2
03/19/2012 0.09" 0.00" 0.13" -0.10" 42.4° 29.7° 34.8° 75.7% 0.6 MPH 226.9w/m2
03/20/2012 0.10" 0.00" 0.11" -0.09" 46.5° 23.8° 35.5° 69.3% 0.4 MPH 260.5w/m2
03/21/2012 0.14" 0.00" 0.00" 0.00" 60.8° 39.3° 49.2° 48.3% 0.4 MPH 279.6w/m2
03/22/2012 0.15" 0.00" 0.00" 0.00" 70.8° 37.9° 55.6° 41.6% 0.6 MPH 284.9w/m2
03/23/2012 0.11" 0.00" 0.00" 0.00" 71.0° 53.9° 63.7° 26.2% 0.8 MPH 197.9w/m2
03/24/2012 0.12" 0.00" 0.00" 0.00" 71.1° 51.1° 61.1° 34.3% 0.6 MPH 213.3w/m2
03/25/2012 0.11" 0.00" 0.00" 0.00" 71.1° 53.5° 62.8° 27.3% 0.7 MPH 191.3w/m2
03/26/2012 0.08" 0.00" 0.04" -0.03" 62.3° 37.0° 49.6° 45.1% 0.8 MPH 177.4w/m2
03/27/2012 0.10" 0.00" 0.00" 0.00" 62.1° 37.0° 49.5° 44.8% 0.4 MPH 195.7w/m2
03/28/2012 0.14" 0.00" 0.00" 0.00" 66.5° 46.8° 55.9° 40.9% 0.7 MPH 231.9w/m2
03/29/2012 0.11" 0.00" 0.00" 0.00" 62.6° 37.3° 49.7° 71.2% 0.3 MPH 206.9w/m2
03/30/2012 0.14" 0.00" 0.00" 0.00" 71.4° 42.9° 56.8° 52.9% 0.3 MPH 237.2w/m2
03/31/2012 0.18" 0.00" 0.00" 0.00" 78.4° 53.1° 66.1° 29.8% 1.0 MPH 298.1w/m2
Totals: 3.12" 0.00" 1.16" -0.93" 78.4° 21.7° 48.5° 50.1% 0.6 MPH 206.5w/m2